Lagrange, Wyoming
Current Conditions -  °F | °C
As of 3:53 AM on Saturday 22 Nov 2014 (Local Time) from KTOR Reporting Station
Clear Clear  
Wind Chill: -11°   Ceiling: Unl
Heat Index: -6°   Visibility: 10mi
Dew Point: -8°   Wind: 9mph
Humidity: 82%   Direction: 90°E
Pressure: 29.76"   Gusts: NA
Location:  41.63°N, 104.35°W
Report Text: KTOR 221053Z AUTO 09008KT 10SM CLR M06/M08 A2976 RMK AO2 SLP090 T10561083
Loading
Personal Weather Stations






























Interactive Weather Map New forecast layout! Learn more

10-Day Weather Forecast

Advertisements
Track Severe Weather on mobile